Ship Status Report: callsign C6I06

sailwx.info

Track history (hours):
 
Tides and Currents Weather Stations Pressure Air Temp Water Temp Dewpoint Dewpoint Depression Visibility Wind Speed Wind Dir Waves Ship Positions

Callsign C6I06 (name unknown)

Last reported at 2018-Jul-11 16:29 UTC. Time now 2018-Jul-20 08:13 UTC.
Position N 37°53' E 000°07'.
Warning: this ship's position is 8 days out of date.

Date/timePositionNaut miles runAvg speedWind from/ knotsBaromVisibWave heightAir tempDewpointWater temp
2018-Jul-11 16:29N 37°53' E 000°07'612.7
2018-Jul-11 16:00N 37°50' E 000°01'712.4
2018-Jul-11 15:25N 37°46' W 000°07'512.4
2018-Jul-11 15:01N 37°43' W 000°12'612.2
2018-Jul-11 14:30N 37°40' W 000°19'612.3
2018-Jul-11 13:58N 37°36' W 000°26'612.3
2018-Jul-11 13:31N 37°33' W 000°31'611.2
2018-Jul-11 12:56N 37°31' W 000°39'512.2
2018-Jul-11 12:30N 37°31' W 000°46'612.5
2018-Jul-11 12:01N 37°31' W 000°54'6 0.7
2018-Jul-11 04:05N 37°34' W 000°60'  
2018-Jul-08 18:40N 36°07' W 005°10'1 5.1
2018-Jul-08 18:30N 36°07' W 005°11'4 5.0
2018-Jul-08 17:40N 36°05' W 005°15'1 4.7
2018-Jul-08 17:30N 36°05' W 005°16'3 5.7
2018-Jul-08 17:00N 36°04' W 005°20'3 6.0
2018-Jul-08 16:30N 36°06' W 005°22'3 0.3
2018-Jul-08 06:38N 36°09' W 005°22'0 0.0
2018-Jul-08 06:29N 36°09' W 005°22'2 3.6
2018-Jul-08 06:00N 36°07' W 005°22'4 7.1
2018-Jul-08 05:30N 36°04' W 005°22'4 7.4
2018-Jul-08 05:00N 35°60' W 005°23'4 8.7
2018-Jul-08 04:30N 35°58' W 005°28'5 9.1
2018-Jul-08 03:59N 35°56' W 005°34'6 9.3
2018-Jul-08 03:22N 35°56' W 005°41'3 8.3
2018-Jul-08 03:00N 35°56' W 005°44'4 7.2
2018-Jul-08 02:31N 35°56' W 005°49'193 4.6
2018-Jul-06 08:59N 37°31' W 009°18'510.6
2018-Jul-06 08:31N 37°36' W 009°18'510.6
2018-Jul-06 08:00N 37°41' W 009°19'510.4
2018-Jul-06 07:31N 37°46' W 009°20'510.3
2018-Jul-06 07:01N 37°51' W 009°18'510.6
2018-Jul-06 06:31N 37°57' W 009°19'510.8
2018-Jul-06 06:01N 38°02' W 009°20'510.9
2018-Jul-06 05:31N 38°07' W 009°20'611.0
2018-Jul-06 05:00N 38°13' W 009°21'511.0
2018-Jul-06 04:31N 38°18' W 009°21'510.8
2018-Jul-06 04:01N 38°24' W 009°21'510.6
2018-Jul-06 03:30N 38°29' W 009°22'510.6
2018-Jul-06 03:00N 38°34' W 009°23'510.0
2018-Jul-06 02:31N 38°39' W 009°20'5 9.8
2018-Jul-06 02:00N 38°41' W 009°15'4 8.6
2018-Jul-06 01:30N 38°42' W 009°09'2 2.8
2018-Jul-06 00:52N 38°43' W 009°07'0 0.0
2018-Jul-05 23:01N 38°43' W 009°07'0 0.0
2018-Jul-05 22:58N 38°43' W 009°07'0 0.0
2018-Jul-05 22:28N 38°43' W 009°07'0 0.0
2018-Jul-05 21:46N 38°43' W 009°07'0 0.0
2018-Jul-05 21:28N 38°43' W 009°07'0 0.0
2018-Jul-05 20:58N 38°43' W 009°07'0 0.0
2018-Jul-05 18:43N 38°43' W 009°07'0 0.0
2018-Jul-05 18:22N 38°43' W 009°07'0 0.0
2018-Jul-05 17:58N 38°43' W 009°07'0 0.0
2018-Jul-05 17:22N 38°43' W 009°07'0 0.0
2018-Jul-05 16:46N 38°43' W 009°07'0 0.0
2018-Jul-05 16:28N 38°43' W 009°07'0 0.0
2018-Jul-05 15:58N 38°43' W 009°07'0 0.0
2018-Jul-05 15:28N 38°43' W 009°07'0 0.0
2018-Jul-05 14:52N 38°43' W 009°07'0 0.0
2018-Jul-05 13:43N 38°43' W 009°07'0 0.0
2018-Jul-05 13:28N 38°43' W 009°07'0 0.0
2018-Jul-05 12:58N 38°43' W 009°07'0 0.0
2018-Jul-05 12:28N 38°43' W 009°07'0 0.0
2018-Jul-05 02:55N 38°43' W 009°07'0 0.0
2018-Jul-05 02:31N 38°43' W 009°07'0 0.0
2018-Jul-05 02:00N 38°43' W 009°07'2 3.3
2018-Jul-05 01:30N 38°42' W 009°09'4 8.3
2018-Jul-05 01:00N 38°41' W 009°14'4 9.1
2018-Jul-05 00:31N 38°39' W 009°20'4 8.9
2018-Jul-05 00:00N 38°36' W 009°23'510.4
2018-Jul-04 23:30N 38°30' W 009°23'510.4
2018-Jul-04 23:00N 38°25' W 009°23'510.5
2018-Jul-04 22:31N 38°20' W 009°23'510.7
2018-Jul-04 22:01N 38°15' W 009°23'510.8
2018-Jul-04 21:30N 38°09' W 009°23'510.6
2018-Jul-04 21:01N 38°04' W 009°22'510.6
2018-Jul-04 20:30N 37°59' W 009°22'611.1
2018-Jul-04 20:01N 37°53' W 009°22'610.6
2018-Jul-04 19:25N 37°47' W 009°22'5 9.9
2018-Jul-04 18:57N 37°42' W 009°22'208 4.4
2018-Jul-02 19:22N 35°58' W 005°36'2 6.3
2018-Jul-02 19:00N 35°59' W 005°33'3 5.7
2018-Jul-02 18:30N 35°60' W 005°30'2 4.1
2018-Jul-02 18:00N 36°00' W 005°28'2 4.4
2018-Jul-02 17:30N 36°01' W 005°25'2 4.5
2018-Jul-02 17:00N 36°03' W 005°24'4 6.0
2018-Jul-02 16:16N 36°08' W 005°23'1 0.1
2018-Jul-02 06:18N 36°09' W 005°22'2 7.2
2018-Jul-02 06:00N 36°07' W 005°22'3 6.8
2018-Jul-02 05:31N 36°05' W 005°19'4 7.1
2018-Jul-02 05:01N 36°05' W 005°14'4 7.7
2018-Jul-02 04:31N 36°07' W 005°10'4 7.6
2018-Jul-02 03:59N 36°10' W 005°06'  
Track history (hours):
 
Tides and Currents Weather Stations Pressure Air Temp Water Temp Dewpoint Dewpoint Depression Visibility Wind Speed Wind Dir Waves Ship Positions

Callsign C6I06 (name unknown)

Last reported at 2018-Jul-11 16:29 UTC. Time now 2018-Jul-20 08:13 UTC.
Position N 37°53' E 000°07'.
Warning: this ship's position is 8 days out of date.

Date/timePositionNaut miles runAvg speedWind from/ knotsBaromVisibWave heightAir tempDewpointWater temp
2018-Jul-11 16:29N 37°53' E 000°07'612.7
2018-Jul-11 16:00N 37°50' E 000°01'712.4
2018-Jul-11 15:25N 37°46' W 000°07'512.4
2018-Jul-11 15:01N 37°43' W 000°12'612.2
2018-Jul-11 14:30N 37°40' W 000°19'612.3
2018-Jul-11 13:58N 37°36' W 000°26'612.3
2018-Jul-11 13:31N 37°33' W 000°31'611.2
2018-Jul-11 12:56N 37°31' W 000°39'512.2
2018-Jul-11 12:30N 37°31' W 000°46'612.5
2018-Jul-11 12:01N 37°31' W 000°54'6 0.7
2018-Jul-11 04:05N 37°34' W 000°60'  
2018-Jul-08 18:40N 36°07' W 005°10'1 5.1
2018-Jul-08 18:30N 36°07' W 005°11'4 5.0
2018-Jul-08 17:40N 36°05' W 005°15'1 4.7
2018-Jul-08 17:30N 36°05' W 005°16'3 5.7
2018-Jul-08 17:00N 36°04' W 005°20'3 6.0
2018-Jul-08 16:30N 36°06' W 005°22'3 0.3
2018-Jul-08 06:38N 36°09' W 005°22'0 0.0
2018-Jul-08 06:29N 36°09' W 005°22'2 3.6
2018-Jul-08 06:00N 36°07' W 005°22'4 7.1
2018-Jul-08 05:30N 36°04' W 005°22'4 7.4
2018-Jul-08 05:00N 35°60' W 005°23'4 8.7
2018-Jul-08 04:30N 35°58' W 005°28'5 9.1
2018-Jul-08 03:59N 35°56' W 005°34'6 9.3
2018-Jul-08 03:22N 35°56' W 005°41'3 8.3
2018-Jul-08 03:00N 35°56' W 005°44'4 7.2
2018-Jul-08 02:31N 35°56' W 005°49'193 4.6
2018-Jul-06 08:59N 37°31' W 009°18'510.6
2018-Jul-06 08:31N 37°36' W 009°18'510.6
2018-Jul-06 08:00N 37°41' W 009°19'510.4
2018-Jul-06 07:31N 37°46' W 009°20'510.3
2018-Jul-06 07:01N 37°51' W 009°18'510.6
2018-Jul-06 06:31N 37°57' W 009°19'510.8
2018-Jul-06 06:01N 38°02' W 009°20'510.9
2018-Jul-06 05:31N 38°07' W 009°20'611.0
2018-Jul-06 05:00N 38°13' W 009°21'511.0
2018-Jul-06 04:31N 38°18' W 009°21'510.8
2018-Jul-06 04:01N 38°24' W 009°21'510.6
2018-Jul-06 03:30N 38°29' W 009°22'510.6
2018-Jul-06 03:00N 38°34' W 009°23'510.0
2018-Jul-06 02:31N 38°39' W 009°20'5 9.8
2018-Jul-06 02:00N 38°41' W 009°15'4 8.6
2018-Jul-06 01:30N 38°42' W 009°09'2 2.8
2018-Jul-06 00:52N 38°43' W 009°07'0 0.0
2018-Jul-05 23:01N 38°43' W 009°07'0 0.0
2018-Jul-05 22:58N 38°43' W 009°07'0 0.0
2018-Jul-05 22:28N 38°43' W 009°07'0 0.0
2018-Jul-05 21:46N 38°43' W 009°07'0 0.0
2018-Jul-05 21:28N 38°43' W 009°07'0 0.0
2018-Jul-05 20:58N 38°43' W 009°07'0 0.0
2018-Jul-05 18:43N 38°43' W 009°07'0 0.0
2018-Jul-05 18:22N 38°43' W 009°07'0 0.0
2018-Jul-05 17:58N 38°43' W 009°07'0 0.0
2018-Jul-05 17:22N 38°43' W 009°07'0 0.0
2018-Jul-05 16:46N 38°43' W 009°07'0 0.0
2018-Jul-05 16:28N 38°43' W 009°07'0 0.0
2018-Jul-05 15:58N 38°43' W 009°07'0 0.0
2018-Jul-05 15:28N 38°43' W 009°07'0 0.0
2018-Jul-05 14:52N 38°43' W 009°07'0 0.0
2018-Jul-05 13:43N 38°43' W 009°07'0 0.0
2018-Jul-05 13:28N 38°43' W 009°07'0 0.0
2018-Jul-05 12:58N 38°43' W 009°07'0 0.0
2018-Jul-05 12:28N 38°43' W 009°07'0 0.0
2018-Jul-05 02:55N 38°43' W 009°07'0 0.0
2018-Jul-05 02:31N 38°43' W 009°07'0 0.0
2018-Jul-05 02:00N 38°43' W 009°07'2 3.3
2018-Jul-05 01:30N 38°42' W 009°09'4 8.3
2018-Jul-05 01:00N 38°41' W 009°14'4 9.1
2018-Jul-05 00:31N 38°39' W 009°20'4 8.9
2018-Jul-05 00:00N 38°36' W 009°23'510.4
2018-Jul-04 23:30N 38°30' W 009°23'510.4
2018-Jul-04 23:00N 38°25' W 009°23'510.5
2018-Jul-04 22:31N 38°20' W 009°23'510.7
2018-Jul-04 22:01N 38°15' W 009°23'510.8
2018-Jul-04 21:30N 38°09' W 009°23'510.6
2018-Jul-04 21:01N 38°04' W 009°22'510.6
2018-Jul-04 20:30N 37°59' W 009°22'611.1
2018-Jul-04 20:01N 37°53' W 009°22'610.6
2018-Jul-04 19:25N 37°47' W 009°22'5 9.9
2018-Jul-04 18:57N 37°42' W 009°22'208 4.4
2018-Jul-02 19:22N 35°58' W 005°36'2 6.3
2018-Jul-02 19:00N 35°59' W 005°33'3 5.7
2018-Jul-02 18:30N 35°60' W 005°30'2 4.1
2018-Jul-02 18:00N 36°00' W 005°28'2 4.4
2018-Jul-02 17:30N 36°01' W 005°25'2 4.5
2018-Jul-02 17:00N 36°03' W 005°24'4 6.0
2018-Jul-02 16:16N 36°08' W 005°23'1 0.1
2018-Jul-02 06:18N 36°09' W 005°22'2 7.2
2018-Jul-02 06:00N 36°07' W 005°22'3 6.8
2018-Jul-02 05:31N 36°05' W 005°19'4 7.1
2018-Jul-02 05:01N 36°05' W 005°14'4 7.7
2018-Jul-02 04:31N 36°07' W 005°10'4 7.6
2018-Jul-02 03:59N 36°10' W 005°06'  

Dump ship's entire track history